createdAt,value
2022-11-24T00:01:04.662Z,7.10
2022-11-24T00:03:31.618Z,7.10
2022-11-24T00:06:22.928Z,7.10
2022-11-24T00:08:50.009Z,7.10
2022-11-24T00:11:22.174Z,7.10
2022-11-24T00:13:49.235Z,7.10
2022-11-24T00:16:25.813Z,7.10
2022-11-24T00:18:54.674Z,7.10
2022-11-24T00:21:22.621Z,7.10
2022-11-24T00:23:50.015Z,7.10
2022-11-24T00:26:19.044Z,7.10
2022-11-24T00:28:47.439Z,7.20
2022-11-24T00:31:17.842Z,7.20
2022-11-24T00:33:46.196Z,7.20
2022-11-24T00:36:13.398Z,7.20
2022-11-24T00:38:40.156Z,7.30
2022-11-24T00:41:07.406Z,7.30
2022-11-24T00:43:34.380Z,7.20
2022-11-24T00:46:01.290Z,7.20
2022-11-24T00:48:28.255Z,7.20
2022-11-24T00:50:59.957Z,7.30
2022-11-24T00:53:27.274Z,7.30
2022-11-24T00:55:54.435Z,7.30
2022-11-24T00:58:21.937Z,7.30
2022-11-24T01:00:49.127Z,7.30
2022-11-24T01:03:16.935Z,7.30
2022-11-24T01:05:43.774Z,7.30
2022-11-24T01:08:10.879Z,7.30
2022-11-24T01:10:37.888Z,7.30
2022-11-24T01:13:05.004Z,7.40
2022-11-24T01:15:31.836Z,7.40
2022-11-24T01:17:58.552Z,7.40
2022-11-24T01:20:25.328Z,7.50
2022-11-24T01:22:52.055Z,7.50
2022-11-24T01:25:18.922Z,7.50
2022-11-24T01:27:45.718Z,7.50
2022-11-24T01:30:12.552Z,7.40
2022-11-24T01:32:39.466Z,7.50
2022-11-24T01:35:07.165Z,7.50
2022-11-24T01:37:33.938Z,7.50
2022-11-24T01:40:00.802Z,7.50
2022-11-24T01:42:37.661Z,7.50
2022-11-24T01:45:43.131Z,7.50
2022-11-24T01:48:43.807Z,7.60
2022-11-24T01:51:12.563Z,7.60
2022-11-24T01:53:42.392Z,7.60
2022-11-24T01:56:09.261Z,7.70
2022-11-24T01:58:36.631Z,7.80
2022-11-24T02:01:03.454Z,7.80
2022-11-24T02:03:34.823Z,7.80
2022-11-24T02:06:05.886Z,7.80
2022-11-24T02:08:51.013Z,7.80
2022-11-24T02:11:19.228Z,7.80
2022-11-24T02:13:47.186Z,7.80
2022-11-24T02:16:13.991Z,7.80
2022-11-24T02:18:42.107Z,7.80
2022-11-24T02:21:10.975Z,7.80
2022-11-24T02:24:00.897Z,7.80
2022-11-24T02:26:47.382Z,7.80
2022-11-24T02:29:14.628Z,7.80
2022-11-24T02:31:45.095Z,7.80
2022-11-24T02:34:11.860Z,7.80
2022-11-24T02:36:38.616Z,7.70
2022-11-24T02:39:12.611Z,7.80
2022-11-24T02:41:42.744Z,7.70
2022-11-24T02:44:09.536Z,7.70
2022-11-24T02:46:36.369Z,7.70
2022-11-24T02:49:03.138Z,7.70
2022-11-24T02:51:30.044Z,7.60
2022-11-24T02:53:56.776Z,7.60
2022-11-24T02:56:23.524Z,7.60
2022-11-24T02:58:50.260Z,7.50
2022-11-24T03:01:17.076Z,7.50
2022-11-24T03:03:43.987Z,7.50
2022-11-24T03:06:10.762Z,7.50
2022-11-24T03:08:37.536Z,7.40
2022-11-24T03:11:04.501Z,7.40
2022-11-24T03:13:31.287Z,7.40
2022-11-24T03:15:58.013Z,7.40
2022-11-24T03:18:24.849Z,7.40
2022-11-24T03:20:51.608Z,7.30
2022-11-24T03:23:18.354Z,7.30
2022-11-24T03:25:45.091Z,7.30
2022-11-24T03:28:11.858Z,7.30
2022-11-24T03:30:38.592Z,7.30
2022-11-24T03:33:07.192Z,7.20
2022-11-24T03:35:33.899Z,7.20
2022-11-24T03:38:00.654Z,7.20
2022-11-24T03:40:27.351Z,7.20
2022-11-24T03:42:54.080Z,7.20
2022-11-24T03:48:07.855Z,7.10
2022-11-24T03:50:34.649Z,7.10
2022-11-24T03:53:01.384Z,7.20
2022-11-24T03:55:28.095Z,7.10
2022-11-24T03:57:57.826Z,7.10
2022-11-24T04:00:24.747Z,7.10
2022-11-24T04:02:51.542Z,7.10
2022-11-24T04:05:18.422Z,7.10
2022-11-24T04:07:45.260Z,7.10
2022-11-24T04:10:12.071Z,7.00
2022-11-24T04:12:44.472Z,7.00
2022-11-24T04:15:16.719Z,7.00
2022-11-24T04:17:44.987Z,7.00
2022-11-24T04:20:12.635Z,7.00
2022-11-24T04:22:39.867Z,7.10
2022-11-24T04:25:07.346Z,7.00
2022-11-24T04:27:34.774Z,7.00
2022-11-24T04:30:01.533Z,7.00
2022-11-24T04:32:28.313Z,7.00
2022-11-24T04:34:55.082Z,7.10
2022-11-24T04:37:21.866Z,7.10
2022-11-24T04:39:48.645Z,7.10
2022-11-24T04:42:15.427Z,7.10
2022-11-24T04:44:42.237Z,7.10
2022-11-24T04:47:15.394Z,7.10
2022-11-24T04:49:46.820Z,7.10
2022-11-24T04:52:13.541Z,7.10
2022-11-24T04:54:40.314Z,7.10
2022-11-24T04:57:07.045Z,7.00
2022-11-24T04:59:33.790Z,7.10
2022-11-24T05:02:00.641Z,7.00
2022-11-24T05:04:27.492Z,7.00
2022-11-24T05:06:54.284Z,7.00
2022-11-24T05:09:21.066Z,7.00
2022-11-24T05:11:47.828Z,7.10
2022-11-24T05:14:14.590Z,7.00
2022-11-24T05:16:41.397Z,7.00
2022-11-24T05:19:08.534Z,7.00
2022-11-24T05:21:35.231Z,7.00
2022-11-24T05:24:02.077Z,7.00
2022-11-24T05:26:29.031Z,7.00
2022-11-24T05:28:55.816Z,7.00
2022-11-24T05:31:22.698Z,7.00
2022-11-24T05:33:49.516Z,6.90
2022-11-24T05:36:34.766Z,6.90
2022-11-24T05:39:06.920Z,6.90
2022-11-24T05:41:33.710Z,6.90
2022-11-24T05:44:00.406Z,6.90
2022-11-24T05:46:27.178Z,6.80
2022-11-24T05:48:53.978Z,6.80
2022-11-24T05:51:20.729Z,6.80
2022-11-24T05:53:47.531Z,6.90
2022-11-24T05:56:14.318Z,6.90
2022-11-24T05:58:42.791Z,6.90
2022-11-24T06:01:09.720Z,6.80
2022-11-24T06:03:36.569Z,6.80
2022-11-24T06:06:03.389Z,6.80
2022-11-24T06:08:31.386Z,6.80
2022-11-24T06:11:17.132Z,6.80
2022-11-24T06:13:45.531Z,6.80
2022-11-24T06:16:12.760Z,6.80
2022-11-24T06:18:39.677Z,6.80
2022-11-24T06:21:11.598Z,6.90
2022-11-24T06:23:39.461Z,6.80
2022-11-24T06:26:06.804Z,6.80
2022-11-24T06:28:33.691Z,6.80
2022-11-24T06:31:05.054Z,6.80
2022-11-24T06:33:36.098Z,6.70
2022-11-24T06:36:05.213Z,6.70
2022-11-24T06:38:32.610Z,6.80
2022-11-24T06:41:03.964Z,6.70
2022-11-24T06:43:31.127Z,6.80
2022-11-24T06:45:58.322Z,6.70
2022-11-24T06:48:26.070Z,6.70
2022-11-24T06:50:53.272Z,6.70
2022-11-24T06:53:20.227Z,6.60
2022-11-24T06:55:47.221Z,6.60
2022-11-24T06:58:13.994Z,6.60
2022-11-24T07:00:40.775Z,6.60
2022-11-24T07:03:07.701Z,6.60
2022-11-24T07:05:34.533Z,6.60
2022-11-24T07:08:01.358Z,6.60
2022-11-24T07:10:28.137Z,6.60
2022-11-24T07:12:54.837Z,6.50
2022-11-24T07:15:21.683Z,6.60
2022-11-24T07:17:48.445Z,6.50
2022-11-24T07:20:15.506Z,6.50
2022-11-24T07:22:42.285Z,6.50
2022-11-24T07:25:10.242Z,6.50
2022-11-24T07:27:37.295Z,6.50
2022-11-24T07:30:04.549Z,6.40
2022-11-24T07:32:31.447Z,6.40
2022-11-24T07:34:58.207Z,6.40
2022-11-24T07:37:30.867Z,6.40
2022-11-24T07:39:58.287Z,6.40
2022-11-24T07:42:25.010Z,6.40
2022-11-24T07:44:51.793Z,6.40
2022-11-24T07:47:18.553Z,6.30
2022-11-24T07:49:45.381Z,6.30
2022-11-24T07:52:12.428Z,6.40
2022-11-24T07:54:39.267Z,6.40
2022-11-24T07:57:06.039Z,6.40
2022-11-24T07:59:32.824Z,6.40
2022-11-24T08:01:59.641Z,6.40
2022-11-24T08:04:26.671Z,6.40
2022-11-24T08:06:53.400Z,6.40
2022-11-24T08:09:20.200Z,6.40
2022-11-24T08:11:47.026Z,6.40
2022-11-24T08:14:13.898Z,6.40
2022-11-24T08:16:40.723Z,6.40
2022-11-24T08:19:07.680Z,6.40
2022-11-24T08:21:34.627Z,6.50
2022-11-24T08:24:01.352Z,6.50
2022-11-24T08:26:28.125Z,6.50
2022-11-24T08:28:57.014Z,6.60
2022-11-24T08:31:26.102Z,6.60
2022-11-24T08:33:55.589Z,6.60
2022-11-24T08:36:22.347Z,6.60
2022-11-24T08:38:56.927Z,6.60
2022-11-24T08:41:25.214Z,6.70
2022-11-24T08:43:52.047Z,6.70
2022-11-24T08:46:19.551Z,6.80
2022-11-24T08:48:53.750Z,6.80
2022-11-24T08:51:25.030Z,6.80
2022-11-24T08:53:59.994Z,6.80
2022-11-24T08:56:28.150Z,6.90
2022-11-24T08:58:55.208Z,6.90
2022-11-24T09:01:22.574Z,7.00
2022-11-24T09:03:51.340Z,7.00
2022-11-24T09:06:23.188Z,7.00
2022-11-24T09:08:50.327Z,7.00
2022-11-24T09:11:17.982Z,7.10
2022-11-24T09:13:45.046Z,7.10
2022-11-24T09:16:20.527Z,7.20
2022-11-24T09:18:48.129Z,7.20
2022-11-24T09:21:20.261Z,7.20
2022-11-24T09:23:48.868Z,7.30
2022-11-24T09:26:18.189Z,7.30
2022-11-24T09:28:45.855Z,7.40
2022-11-24T09:31:14.702Z,7.40
2022-11-24T09:33:42.405Z,7.40
2022-11-24T09:36:09.841Z,7.40
2022-11-24T09:38:36.830Z,7.40
2022-11-24T09:41:26.092Z,7.40
2022-11-24T09:44:06.395Z,7.50
2022-11-24T09:46:45.672Z,7.50
2022-11-24T09:49:31.639Z,7.50
2022-11-24T09:52:02.827Z,7.50
2022-11-24T09:54:30.610Z,7.60
2022-11-24T09:57:00.100Z,7.70
2022-11-24T09:59:27.583Z,7.70
2022-11-24T10:01:55.818Z,7.70
2022-11-24T10:04:25.281Z,7.70
2022-11-24T10:07:01.620Z,7.80
2022-11-24T10:09:34.694Z,7.80
2022-11-24T10:12:36.971Z,7.90
2022-11-24T10:15:28.088Z,7.90
2022-11-24T10:18:18.365Z,8.00
2022-11-24T10:21:06.927Z,8.10
2022-11-24T10:23:52.556Z,8.20
2022-11-24T10:26:36.565Z,8.20
2022-11-24T10:29:12.604Z,8.30
2022-11-24T10:31:43.761Z,8.40
2022-11-24T10:34:15.043Z,8.40
2022-11-24T10:36:58.631Z,8.40
2022-11-24T10:39:39.733Z,8.50
2022-11-24T10:42:18.747Z,8.50
2022-11-24T10:44:45.709Z,8.50
2022-11-24T10:47:20.018Z,8.60
2022-11-24T10:49:55.163Z,8.70
2022-11-24T10:52:22.645Z,8.70
2022-11-24T10:55:05.317Z,8.80
2022-11-24T10:57:36.607Z,8.80
2022-11-24T11:00:18.724Z,8.90
2022-11-24T11:02:46.874Z,9.00
2022-11-24T11:05:53.026Z,9.00
2022-11-24T11:08:28.894Z,9.10
2022-11-24T11:11:19.845Z,9.10
2022-11-24T11:14:07.610Z,9.20
2022-11-24T11:16:41.539Z,9.20
2022-11-24T11:19:52.367Z,9.30
2022-11-24T11:22:29.529Z,9.40
2022-11-24T11:25:11.724Z,9.50
2022-11-24T11:27:40.790Z,9.60
2022-11-24T11:36:15.947Z,9.80
2022-11-24T11:38:43.341Z,9.90
2022-11-24T11:41:17.305Z,9.90
2022-11-24T11:43:45.783Z,10.00
2022-11-24T11:46:16.418Z,10.10
2022-11-24T11:48:47.017Z,10.10
2022-11-24T11:51:34.903Z,10.20
2022-11-24T11:54:30.865Z,10.20
2022-11-24T11:57:08.337Z,10.40
2022-11-24T11:59:44.278Z,10.40
2022-11-24T12:02:52.908Z,10.50
2022-11-24T12:05:46.562Z,10.60
2022-11-24T12:09:03.321Z,10.60
2022-11-24T12:11:37.734Z,10.70
2022-11-24T12:14:30.118Z,10.80
2022-11-24T12:17:11.790Z,10.80
2022-11-24T12:19:46.516Z,10.90
2022-11-24T12:22:33.516Z,10.90
2022-11-24T12:25:29.716Z,11.00
2022-11-24T12:27:59.529Z,11.10
2022-11-24T12:30:31.416Z,11.30
2022-11-24T12:33:19.431Z,11.30
2022-11-24T12:35:49.192Z,11.50
2022-11-24T12:38:28.151Z,11.60
2022-11-24T12:44:04.542Z,11.70
2022-11-24T12:46:48.326Z,11.90
2022-11-24T12:49:29.967Z,12.00
2022-11-24T12:52:10.357Z,12.10
2022-11-24T12:54:40.012Z,12.20
2022-11-24T12:57:17.634Z,12.30
2022-11-24T13:00:19.663Z,12.30
2022-11-24T13:03:00.620Z,12.50
2022-11-24T13:05:51.371Z,12.50
2022-11-24T13:08:18.959Z,12.60
2022-11-24T13:11:01.136Z,12.60
2022-11-24T13:13:50.008Z,12.70
2022-11-24T13:16:53.635Z,12.90
2022-11-24T13:19:36.924Z,12.90
2022-11-24T13:22:09.669Z,13.00
2022-11-24T13:24:38.733Z,13.10
2022-11-24T13:27:26.658Z,13.20
2022-11-24T13:29:54.818Z,13.30
2022-11-24T13:32:21.745Z,13.50
2022-11-24T13:34:49.948Z,13.50
2022-11-24T13:37:39.584Z,13.50
2022-11-24T13:40:12.383Z,13.50
2022-11-24T13:43:02.690Z,13.50
2022-11-24T13:45:50.611Z,13.60
2022-11-24T13:48:21.033Z,13.50
2022-11-24T13:50:51.387Z,13.50
2022-11-24T13:53:40.307Z,13.40
2022-11-24T13:56:13.358Z,13.40
2022-11-24T13:58:40.125Z,13.40
2022-11-24T14:01:22.009Z,13.40
2022-11-24T14:07:02.522Z,13.20
2022-11-24T14:09:42.718Z,13.10
2022-11-24T14:12:21.129Z,13.10
2022-11-24T14:14:52.517Z,13.10
2022-11-24T14:17:21.028Z,13.10
2022-11-24T14:19:49.743Z,13.10
2022-11-24T14:22:19.876Z,13.10
2022-11-24T14:24:52.571Z,13.10
2022-11-24T14:27:24.919Z,13.10
2022-11-24T14:30:04.170Z,13.00
2022-11-24T14:32:30.994Z,13.00
2022-11-24T14:34:57.903Z,12.90
2022-11-24T14:37:24.817Z,12.80
2022-11-24T14:39:52.752Z,12.80
2022-11-24T14:42:22.256Z,12.90
2022-11-24T14:44:54.368Z,12.80
2022-11-24T14:47:28.723Z,12.80
2022-11-24T14:49:59.679Z,12.60
2022-11-24T14:52:26.826Z,12.70
2022-11-24T14:54:56.562Z,12.60
2022-11-24T14:57:35.366Z,12.60
2022-11-24T15:00:17.136Z,12.60
2022-11-24T15:03:00.756Z,12.60
2022-11-24T15:06:05.102Z,12.50
2022-11-24T15:08:37.699Z,12.40
2022-11-24T15:11:06.912Z,12.40
2022-11-24T15:13:37.481Z,12.30
2022-11-24T15:16:25.863Z,12.30
2022-11-24T15:18:58.604Z,12.30
2022-11-24T15:21:36.499Z,12.30
2022-11-24T15:24:17.848Z,12.30
2022-11-24T15:26:45.327Z,12.10
2022-11-24T15:29:12.631Z,12.10
2022-11-24T15:31:40.758Z,12.10
2022-11-24T15:34:09.915Z,12.00
2022-11-24T15:36:36.738Z,11.90
2022-11-24T15:39:03.671Z,12.00
2022-11-24T15:41:32.191Z,11.90
2022-11-24T15:43:59.240Z,11.90
2022-11-24T15:46:27.883Z,11.80
2022-11-24T15:48:55.431Z,11.70
2022-11-24T15:51:24.897Z,11.70
2022-11-24T15:53:55.788Z,11.70
2022-11-24T15:56:34.535Z,11.70
2022-11-24T15:59:02.445Z,11.50
2022-11-24T16:01:32.759Z,11.50
2022-11-24T16:04:00.419Z,11.50
2022-11-24T16:06:27.260Z,11.50
2022-11-24T16:08:54.651Z,11.50
2022-11-24T16:11:22.368Z,11.40
2022-11-24T16:13:52.926Z,11.40
2022-11-24T16:16:22.170Z,11.20
2022-11-24T16:18:51.927Z,11.20
2022-11-24T16:21:18.697Z,11.20
2022-11-24T16:23:46.555Z,11.20
2022-11-24T16:26:13.325Z,11.10
2022-11-24T16:28:40.711Z,11.00
2022-11-24T16:31:07.870Z,11.00
2022-11-24T16:33:34.960Z,11.00
2022-11-24T16:36:01.760Z,11.00
2022-11-24T16:38:28.492Z,11.00
2022-11-24T16:40:56.382Z,10.90
2022-11-24T16:43:24.530Z,10.80
2022-11-24T16:46:16.168Z,10.80
2022-11-24T16:48:44.203Z,10.80
2022-11-24T16:51:11.704Z,10.70
2022-11-24T16:53:38.591Z,10.70
2022-11-24T16:56:05.805Z,10.70
2022-11-24T16:58:32.681Z,10.70
2022-11-24T17:01:12.871Z,10.60
2022-11-24T17:03:40.408Z,10.50
2022-11-24T17:06:09.620Z,10.50
2022-11-24T17:08:37.926Z,10.50
2022-11-24T17:11:09.169Z,10.40
2022-11-24T17:13:36.194Z,10.40
2022-11-24T17:16:07.707Z,10.40
2022-11-24T17:18:34.932Z,10.30
2022-11-24T17:21:07.662Z,10.30
2022-11-24T17:23:38.238Z,10.20
2022-11-24T17:26:07.161Z,10.20
2022-11-24T17:28:35.278Z,10.10
2022-11-24T17:31:23.582Z,10.10
2022-11-24T17:33:51.496Z,10.10
2022-11-24T17:36:18.516Z,10.00
2022-11-24T17:38:45.395Z,10.00
2022-11-24T17:41:12.533Z,9.90
2022-11-24T17:43:39.421Z,9.90
2022-11-24T17:46:06.305Z,9.90
2022-11-24T17:48:33.550Z,9.90
2022-11-24T17:51:02.349Z,9.80
2022-11-24T17:53:29.673Z,9.80
2022-11-24T17:56:00.662Z,9.80
2022-11-24T17:58:28.700Z,9.70
2022-11-24T18:00:55.527Z,9.70
2022-11-24T18:03:22.835Z,9.70
2022-11-24T18:05:50.222Z,9.60
2022-11-24T18:08:17.185Z,9.60
2022-11-24T18:10:43.972Z,9.60
2022-11-24T18:13:22.361Z,9.60
2022-11-24T18:16:06.575Z,9.60
2022-11-24T18:18:39.256Z,9.50
2022-11-24T18:21:07.985Z,9.50
2022-11-24T18:23:37.723Z,9.50
2022-11-24T18:26:06.146Z,9.60
2022-11-24T18:28:34.949Z,9.50
2022-11-24T18:31:03.693Z,9.50
2022-11-24T18:33:30.746Z,9.50
2022-11-24T18:35:58.468Z,9.50
2022-11-24T18:38:26.358Z,9.50
2022-11-24T18:40:58.884Z,9.50
2022-11-24T18:43:28.031Z,9.40
2022-11-24T18:45:55.553Z,9.40
2022-11-24T18:48:24.265Z,9.40
2022-11-24T18:50:52.154Z,9.40
2022-11-24T18:53:19.912Z,9.40
2022-11-24T18:55:59.855Z,9.30
2022-11-24T18:58:30.006Z,9.30
2022-11-24T19:01:10.072Z,9.30
2022-11-24T19:03:42.321Z,9.30
2022-11-24T19:06:20.611Z,9.30
2022-11-24T19:08:48.283Z,9.30
2022-11-24T19:11:28.114Z,9.30
2022-11-24T19:13:56.287Z,9.20
2022-11-24T19:16:23.667Z,9.30
2022-11-24T19:18:53.916Z,9.30
2022-11-24T19:21:21.519Z,9.30
2022-11-24T19:23:48.555Z,9.30
2022-11-24T19:26:15.420Z,9.30
2022-11-24T19:28:42.213Z,9.30
2022-11-24T19:31:12.212Z,9.30
2022-11-24T19:33:39.736Z,9.30
2022-11-24T19:36:10.091Z,9.30
2022-11-24T19:38:37.238Z,9.30
2022-11-24T19:41:09.366Z,9.40
2022-11-24T19:43:36.188Z,9.40
2022-11-24T19:46:14.008Z,9.40
2022-11-24T19:48:50.234Z,9.30
2022-11-24T19:51:19.240Z,9.40
2022-11-24T19:53:46.388Z,9.40
2022-11-24T19:56:19.030Z,9.30
2022-11-24T19:58:46.856Z,9.30
2022-11-24T20:01:16.796Z,9.30
2022-11-24T20:03:44.808Z,9.30
2022-11-24T20:06:14.424Z,9.30
2022-11-24T20:08:42.228Z,9.30
2022-11-24T20:11:16.988Z,9.30
2022-11-24T20:13:44.926Z,9.30
2022-11-24T20:16:14.337Z,9.30
2022-11-24T20:18:46.245Z,9.30
2022-11-24T20:21:19.524Z,9.30
2022-11-24T20:23:52.250Z,9.30
2022-11-24T20:26:20.838Z,9.30
2022-11-24T20:28:47.719Z,9.30
2022-11-24T20:31:17.044Z,9.30
2022-11-24T20:33:44.327Z,9.30
2022-11-24T20:36:23.214Z,9.30
2022-11-24T20:38:51.398Z,9.30
2022-11-24T20:41:23.750Z,9.30
2022-11-24T20:43:51.906Z,9.30
2022-11-24T20:46:21.598Z,9.40
2022-11-24T20:48:50.275Z,9.40
2022-11-24T20:51:21.746Z,9.40
2022-11-24T20:53:49.597Z,9.40
2022-11-24T20:56:19.805Z,9.40
2022-11-24T20:58:46.740Z,9.40
2022-11-24T21:01:16.219Z,9.40
2022-11-24T21:03:43.895Z,9.40
2022-11-24T21:06:12.187Z,9.40
2022-11-24T21:08:40.065Z,9.50
2022-11-24T21:11:08.503Z,9.50
2022-11-24T21:13:36.790Z,9.50
2022-11-24T21:16:18.440Z,9.50
2022-11-24T21:18:47.602Z,9.50
2022-11-24T21:21:14.714Z,9.50
2022-11-24T21:23:41.576Z,9.60
2022-11-24T21:26:14.823Z,9.60
2022-11-24T21:28:44.702Z,9.60
2022-11-24T21:31:19.762Z,9.60
2022-11-24T21:33:48.529Z,9.60
2022-11-24T21:36:17.967Z,9.60
2022-11-24T21:38:52.881Z,9.60
2022-11-24T21:41:20.587Z,9.60
2022-11-24T21:43:47.470Z,9.60
2022-11-24T21:46:15.818Z,9.60
2022-11-24T21:48:43.009Z,9.60
2022-11-24T21:51:13.945Z,9.50
2022-11-24T21:53:41.334Z,9.60
2022-11-24T21:56:12.950Z,9.60
2022-11-24T21:58:48.030Z,9.60
2022-11-24T22:01:16.400Z,9.60
2022-11-24T22:03:43.509Z,9.60
2022-11-24T22:06:10.336Z,9.60
2022-11-24T22:08:37.379Z,9.60
2022-11-24T22:11:15.009Z,9.60
2022-11-24T22:13:43.202Z,9.60
2022-11-24T22:16:14.989Z,9.60
2022-11-24T22:18:43.070Z,9.60
2022-11-24T22:21:15.748Z,9.60
2022-11-24T22:23:43.130Z,9.60
2022-11-24T22:26:15.234Z,9.60
2022-11-24T22:28:42.740Z,9.60
2022-11-24T22:31:12.401Z,9.60
2022-11-24T22:33:39.412Z,9.60
2022-11-24T22:36:06.819Z,9.70
2022-11-24T22:38:34.103Z,9.70
2022-11-24T22:41:05.691Z,9.70
2022-11-24T22:43:34.559Z,9.70
2022-11-24T22:46:10.988Z,9.70
2022-11-24T22:48:38.115Z,9.70
2022-11-24T22:51:07.030Z,9.70
2022-11-24T22:53:34.013Z,9.70
2022-11-24T22:56:05.883Z,9.60
2022-11-24T22:58:33.503Z,9.70
2022-11-24T23:01:10.797Z,9.70
2022-11-24T23:03:38.033Z,9.70
2022-11-24T23:06:08.424Z,9.70
2022-11-24T23:08:35.857Z,9.70
2022-11-24T23:11:05.652Z,9.70
2022-11-24T23:13:32.863Z,9.70
2022-11-24T23:16:05.120Z,9.70
2022-11-24T23:18:32.195Z,9.70
2022-11-24T23:21:32.438Z,9.70
2022-11-24T23:24:00.678Z,9.70
2022-11-24T23:26:39.360Z,9.70
2022-11-24T23:29:06.717Z,9.70
2022-11-24T23:31:33.742Z,9.70
2022-11-24T23:34:02.701Z,9.70
2022-11-24T23:36:30.265Z,9.70
2022-11-24T23:39:02.018Z,9.70
2022-11-24T23:41:30.230Z,9.80
2022-11-24T23:43:57.154Z,9.80
2022-11-24T23:46:25.752Z,9.80
2022-11-24T23:48:54.179Z,9.80
2022-11-24T23:51:23.284Z,9.80
2022-11-24T23:53:51.327Z,9.80
2022-11-24T23:56:26.433Z,9.80
2022-11-24T23:58:53.141Z,9.80
